createdAt,value
2018-05-04T00:00:58.276Z,13.75
2018-05-04T00:03:29.053Z,13.40
2018-05-04T00:05:59.764Z,13.60
2018-05-04T00:08:31.230Z,13.46
2018-05-04T00:11:04.188Z,13.20
2018-05-04T00:13:36.031Z,13.37
2018-05-04T00:16:07.131Z,13.24
2018-05-04T00:18:38.190Z,13.35
2018-05-04T00:21:09.457Z,13.41
2018-05-04T00:23:40.563Z,13.21
2018-05-04T00:26:11.836Z,13.29
2018-05-04T00:28:42.876Z,13.22
2018-05-04T00:31:14.094Z,13.26
2018-05-04T00:33:45.378Z,13.28
2018-05-04T00:36:16.472Z,13.16
2018-05-04T00:38:47.719Z,12.87
2018-05-04T00:41:18.807Z,12.90
2018-05-04T00:43:50.014Z,13.08
2018-05-04T00:46:21.095Z,12.98
2018-05-04T00:48:52.156Z,13.32
2018-05-04T00:51:23.248Z,12.84
2018-05-04T00:54:03.042Z,13.02
2018-05-04T00:56:35.013Z,12.95
2018-05-04T00:59:06.186Z,12.84
2018-05-04T01:01:37.280Z,12.52
2018-05-04T01:04:08.324Z,12.47
2018-05-04T01:06:39.407Z,12.66
2018-05-04T01:09:10.557Z,12.39
2018-05-04T01:11:41.846Z,12.58
2018-05-04T01:14:12.964Z,12.72
2018-05-04T01:16:44.175Z,12.49
2018-05-04T01:19:15.472Z,12.43
2018-05-04T01:21:46.623Z,12.42
2018-05-04T01:24:17.740Z,12.42
2018-05-04T01:26:48.821Z,12.43
2018-05-04T01:29:19.995Z,12.40
2018-05-04T01:31:51.184Z,12.36
2018-05-04T01:34:22.467Z,12.84
2018-05-04T01:36:53.796Z,12.77
2018-05-04T01:39:24.955Z,12.70
2018-05-04T01:41:56.184Z,12.75
2018-05-04T01:44:27.528Z,12.56
2018-05-04T01:46:58.785Z,12.66
2018-05-04T01:49:30.100Z,12.53
2018-05-04T01:52:01.175Z,12.49
2018-05-04T01:54:32.364Z,12.46
2018-05-04T01:57:03.606Z,12.65
2018-05-04T01:59:35.691Z,12.82
2018-05-04T02:02:06.894Z,12.43
2018-05-04T02:04:37.976Z,12.79
2018-05-04T02:07:09.019Z,11.97
2018-05-04T02:09:40.068Z,12.12
2018-05-04T02:15:33.389Z,12.19
2018-05-04T02:24:38.595Z,11.39
2018-05-04T02:27:09.933Z,11.53
2018-05-04T02:29:40.993Z,11.65
2018-05-04T02:32:12.155Z,11.75
2018-05-04T02:34:43.317Z,11.49
2018-05-04T02:37:16.242Z,11.54
2018-05-04T02:39:47.607Z,11.80
2018-05-04T02:42:18.754Z,11.34
2018-05-04T02:44:49.893Z,11.94
2018-05-04T02:47:21.261Z,11.85
2018-05-04T02:49:52.402Z,11.65
2018-05-04T02:52:23.453Z,11.73
2018-05-04T02:54:55.113Z,11.50
2018-05-04T02:57:26.333Z,11.35
2018-05-04T02:59:57.413Z,11.69
2018-05-04T03:02:28.665Z,11.86
2018-05-04T03:04:59.907Z,11.75
2018-05-04T03:07:31.068Z,11.92
2018-05-04T03:10:02.130Z,11.71
2018-05-04T03:12:34.208Z,11.79
2018-05-04T03:15:06.383Z,11.75
2018-05-04T03:17:37.576Z,11.66
2018-05-04T03:20:08.425Z,11.37
2018-05-04T03:22:39.108Z,11.79
2018-05-04T03:25:12.817Z,11.74
2018-05-04T03:27:43.597Z,11.80
2018-05-04T03:30:14.341Z,11.49
2018-05-04T03:32:45.219Z,11.30
2018-05-04T03:35:15.875Z,11.25
2018-05-04T03:37:46.676Z,11.63
2018-05-04T03:40:17.403Z,11.71
2018-05-04T03:42:48.289Z,11.34
2018-05-04T03:45:19.180Z,11.70
2018-05-04T03:47:49.823Z,11.87
2018-05-04T03:50:20.484Z,11.83
2018-05-04T03:52:51.291Z,11.72
2018-05-04T03:55:22.118Z,12.04
2018-05-04T03:59:06.849Z,11.57
2018-05-04T04:02:45.893Z,11.18
2018-05-04T04:05:16.646Z,11.56
2018-05-04T04:07:47.463Z,11.75
2018-05-04T04:10:18.348Z,11.74
2018-05-04T04:12:48.995Z,11.69
2018-05-04T04:15:19.730Z,11.62
2018-05-04T04:17:50.430Z,11.41
2018-05-04T04:20:21.324Z,11.57
2018-05-04T04:22:52.477Z,12.03
2018-05-04T04:25:23.214Z,11.74
2018-05-04T04:27:53.875Z,11.93
2018-05-04T04:30:24.683Z,12.15
2018-05-04T04:32:55.432Z,12.11
2018-05-04T04:35:27.569Z,11.96
2018-05-04T04:37:58.179Z,11.95
2018-05-04T04:40:28.797Z,11.71
2018-05-04T04:42:59.483Z,11.67
2018-05-04T04:45:30.443Z,12.03
2018-05-04T04:48:01.216Z,11.91
2018-05-04T04:50:32.045Z,11.85
2018-05-04T04:53:03.007Z,12.00
2018-05-04T04:55:33.738Z,11.68
2018-05-04T04:58:04.575Z,11.56
2018-05-04T05:00:35.418Z,11.65
2018-05-04T05:03:06.212Z,11.70
2018-05-04T05:05:40.215Z,12.03
2018-05-04T05:08:11.421Z,12.19
2018-05-04T05:10:42.241Z,12.30
2018-05-04T05:13:12.783Z,11.98
2018-05-04T05:15:43.782Z,11.85
2018-05-04T05:18:14.351Z,11.96
2018-05-04T05:20:44.999Z,12.01
2018-05-04T05:23:15.576Z,12.23
2018-05-04T05:25:46.411Z,12.04
2018-05-04T05:28:17.092Z,12.14
2018-05-04T05:30:47.823Z,12.06
2018-05-04T05:33:18.844Z,12.00
2018-05-04T05:35:49.873Z,11.89
2018-05-04T05:38:20.427Z,12.19
2018-05-04T05:40:51.282Z,12.17
2018-05-04T05:43:22.032Z,11.91
2018-05-04T05:45:52.763Z,11.94
2018-05-04T05:48:24.087Z,11.95
2018-05-04T05:50:54.785Z,11.83
2018-05-04T05:53:25.391Z,12.16
2018-05-04T05:55:56.013Z,12.14
2018-05-04T05:58:26.632Z,12.01
2018-05-04T06:00:57.298Z,12.10
2018-05-04T06:03:27.922Z,11.90
2018-05-04T06:05:58.615Z,12.15
2018-05-04T06:08:29.460Z,11.97
2018-05-04T06:11:00.117Z,11.89
2018-05-04T06:13:31.727Z,12.19
2018-05-04T06:16:02.404Z,12.09
2018-05-04T06:18:33.958Z,12.19
2018-05-04T06:21:04.590Z,12.10
2018-05-04T06:23:35.182Z,12.12
2018-05-04T06:26:05.960Z,12.17
2018-05-04T06:28:36.528Z,12.18
2018-05-04T06:31:07.237Z,12.06
2018-05-04T06:33:37.815Z,11.96
2018-05-04T06:36:08.568Z,12.22
2018-05-04T06:38:39.336Z,11.83
2018-05-04T06:41:09.922Z,11.69
2018-05-04T06:43:40.528Z,11.86
2018-05-04T06:46:11.617Z,11.76
2018-05-04T06:48:42.306Z,11.78
2018-05-04T06:51:13.255Z,11.98
2018-05-04T06:53:44.000Z,11.91
2018-05-04T06:56:14.681Z,11.96
2018-05-04T06:58:45.379Z,12.11
2018-05-04T07:01:16.067Z,12.11
2018-05-04T07:03:46.902Z,12.08
2018-05-04T07:06:17.564Z,12.08
2018-05-04T07:08:48.557Z,12.03
2018-05-04T07:11:19.116Z,12.22
2018-05-04T07:13:49.924Z,12.29
2018-05-04T07:16:20.443Z,12.40
2018-05-04T07:18:51.098Z,12.33
2018-05-04T07:21:21.835Z,12.51
2018-05-04T07:23:52.723Z,12.27
2018-05-04T07:26:23.532Z,12.19
2018-05-04T07:28:54.212Z,12.32
2018-05-04T07:31:25.195Z,12.81
2018-05-04T07:33:56.066Z,12.91
2018-05-04T07:36:26.819Z,13.23
2018-05-04T07:38:57.523Z,13.15
2018-05-04T07:41:28.205Z,13.12
2018-05-04T07:43:59.075Z,12.87
2018-05-04T07:46:29.677Z,13.29
2018-05-04T07:49:00.688Z,13.12
2018-05-04T07:51:31.779Z,12.93
2018-05-04T07:54:02.388Z,13.02
2018-05-04T07:56:38.141Z,12.98
2018-05-04T07:59:10.375Z,13.34
2018-05-04T08:01:42.353Z,13.49
2018-05-04T08:04:13.007Z,13.92
2018-05-04T08:06:43.944Z,13.37
2018-05-04T08:09:14.517Z,13.45
2018-05-04T08:11:45.572Z,14.01
2018-05-04T08:14:16.345Z,13.72
2018-05-04T08:16:47.876Z,14.08
2018-05-04T08:19:19.273Z,14.23
2018-05-04T08:21:50.033Z,14.20
2018-05-04T08:24:20.617Z,14.40
2018-05-04T08:26:51.528Z,14.00
2018-05-04T08:29:22.194Z,14.21
2018-05-04T08:31:52.849Z,14.65
2018-05-04T08:34:23.557Z,14.81
2018-05-04T08:36:54.551Z,14.72
2018-05-04T08:39:25.204Z,14.26
2018-05-04T08:41:55.888Z,14.06
2018-05-04T08:44:26.717Z,14.11
2018-05-04T08:46:57.899Z,14.14
2018-05-04T08:49:28.478Z,13.92
2018-05-04T08:51:59.287Z,13.45
2018-05-04T08:54:29.884Z,13.89
2018-05-04T08:57:00.682Z,13.95
2018-05-04T08:59:31.384Z,13.92
2018-05-04T09:02:02.193Z,13.95
2018-05-04T09:04:32.931Z,14.11
2018-05-04T09:07:03.765Z,14.02
2018-05-04T09:09:34.368Z,14.17
2018-05-04T09:12:05.585Z,14.36
2018-05-04T09:14:36.416Z,14.37
2018-05-04T09:17:07.647Z,14.07
2018-05-04T09:19:39.058Z,13.79
2018-05-04T09:22:11.228Z,13.65
2018-05-04T09:24:42.635Z,13.92
2018-05-04T09:27:14.601Z,14.11
2018-05-04T09:29:45.887Z,13.90
2018-05-04T09:32:17.133Z,13.57
2018-05-04T09:34:48.535Z,13.64
2018-05-04T09:37:19.714Z,13.79
2018-05-04T09:39:50.784Z,13.93
2018-05-04T09:42:22.359Z,14.04
2018-05-04T09:44:53.535Z,14.01
2018-05-04T09:47:25.361Z,14.22
2018-05-04T09:49:56.786Z,14.39
2018-05-04T09:52:28.020Z,14.86
2018-05-04T09:54:59.444Z,14.51
2018-05-04T09:57:32.829Z,14.15
2018-05-04T10:00:04.520Z,15.10
2018-05-04T10:02:36.217Z,15.41
2018-05-04T10:05:06.953Z,14.71
2018-05-04T10:07:37.622Z,15.27
2018-05-04T10:10:08.446Z,15.52
2018-05-04T10:12:39.240Z,15.55
2018-05-04T10:15:09.887Z,15.32
2018-05-04T10:17:40.716Z,15.28
2018-05-04T10:20:11.648Z,15.46
2018-05-04T10:22:43.984Z,15.56
2018-05-04T10:25:14.642Z,15.48
2018-05-04T10:27:45.305Z,15.53
2018-05-04T10:30:16.209Z,15.36
2018-05-04T10:32:46.993Z,15.62
2018-05-04T10:35:17.568Z,15.73
2018-05-04T10:37:48.604Z,15.95
2018-05-04T10:40:19.391Z,15.55
2018-05-04T10:42:50.587Z,15.33
2018-05-04T10:45:21.273Z,15.61
2018-05-04T10:47:51.966Z,15.98
2018-05-04T10:50:22.640Z,15.95
2018-05-04T10:52:53.463Z,16.21
2018-05-04T10:55:24.415Z,15.70
2018-05-04T10:57:57.043Z,16.05
2018-05-04T11:00:28.190Z,16.24
2018-05-04T11:02:58.930Z,16.25
2018-05-04T11:05:29.873Z,16.21
2018-05-04T11:08:00.667Z,16.26
2018-05-04T11:10:31.405Z,16.39
2018-05-04T11:13:02.874Z,16.14
2018-05-04T11:15:33.673Z,16.12
2018-05-04T11:18:04.975Z,15.91
2018-05-04T11:20:35.580Z,15.70
2018-05-04T11:23:06.264Z,15.81
2018-05-04T11:25:36.787Z,16.11
2018-05-04T11:28:07.781Z,16.10
2018-05-04T11:30:38.968Z,15.68
2018-05-04T11:33:09.568Z,15.98
2018-05-04T11:35:41.800Z,16.33
2018-05-04T11:38:13.364Z,16.39
2018-05-04T11:40:44.376Z,16.46
2018-05-04T11:43:15.356Z,15.92
2018-05-04T11:45:46.208Z,16.03
2018-05-04T11:48:17.012Z,16.56
2018-05-04T11:50:47.639Z,17.36
2018-05-04T11:53:18.298Z,16.80
2018-05-04T11:55:49.128Z,16.79
2018-05-04T11:58:19.633Z,16.52
2018-05-04T12:00:50.318Z,16.53
2018-05-04T12:03:20.980Z,16.09
2018-05-04T12:05:51.677Z,16.21
2018-05-04T12:08:22.792Z,16.58
2018-05-04T12:10:53.501Z,16.51
2018-05-04T12:13:24.400Z,16.20
2018-05-04T12:15:55.135Z,15.86
2018-05-04T12:18:25.968Z,16.38
2018-05-04T12:20:56.856Z,16.32
2018-05-04T12:23:27.588Z,16.48
2018-05-04T12:25:58.469Z,16.14
2018-05-04T12:28:29.236Z,15.73
2018-05-04T12:31:00.050Z,16.48
2018-05-04T12:33:30.840Z,15.87
2018-05-04T12:36:01.805Z,15.96
2018-05-04T12:38:32.789Z,16.52
2018-05-04T12:41:03.785Z,16.80
2018-05-04T12:43:39.520Z,16.72
2018-05-04T12:48:52.539Z,16.81
2018-05-04T12:51:23.326Z,17.09
2018-05-04T12:53:55.711Z,17.24
2018-05-04T12:56:26.464Z,17.58
2018-05-04T12:58:57.679Z,17.39
2018-05-04T13:01:28.709Z,17.44
2018-05-04T13:03:59.433Z,17.15
2018-05-04T13:06:30.342Z,17.42
2018-05-04T13:09:02.095Z,17.25
2018-05-04T13:11:32.830Z,17.67
2018-05-04T13:14:03.759Z,17.44
2018-05-04T13:16:34.503Z,17.92
2018-05-04T13:19:05.235Z,17.88
2018-05-04T13:21:36.075Z,17.72
2018-05-04T13:24:06.689Z,17.54
2018-05-04T13:26:37.485Z,17.84
2018-05-04T13:29:08.321Z,18.08
2018-05-04T13:31:39.435Z,17.81
2018-05-04T13:34:09.996Z,17.86
2018-05-04T13:36:40.884Z,18.08
2018-05-04T13:39:11.896Z,18.17
2018-05-04T13:41:42.602Z,18.53
2018-05-04T13:44:13.417Z,17.90
2018-05-04T13:46:44.049Z,18.23
2018-05-04T13:49:14.684Z,18.32
2018-05-04T13:51:45.484Z,18.40
2018-05-04T13:54:16.260Z,17.99
2018-05-04T13:56:47.048Z,18.12
2018-05-04T13:59:17.813Z,18.09
2018-05-04T14:01:48.651Z,18.43
2018-05-04T14:04:19.401Z,18.04
2018-05-04T14:06:50.120Z,17.92
2018-05-04T14:09:23.233Z,17.85
2018-05-04T14:11:54.060Z,17.89
2018-05-04T14:14:24.869Z,17.73
2018-05-04T14:16:55.699Z,17.81
2018-05-04T14:19:26.404Z,17.54
2018-05-04T14:21:57.188Z,17.66
2018-05-04T14:24:28.200Z,17.49
2018-05-04T14:26:58.976Z,17.48
2018-05-04T14:29:29.711Z,17.80
2018-05-04T14:32:00.420Z,17.47
2018-05-04T14:34:31.564Z,17.29
2018-05-04T14:37:02.804Z,17.60
2018-05-04T14:39:33.746Z,17.60
2018-05-04T14:42:04.530Z,17.55
2018-05-04T14:44:35.364Z,17.26
2018-05-04T14:47:06.152Z,17.30
2018-05-04T14:49:37.094Z,17.06
2018-05-04T14:52:08.104Z,16.84
2018-05-04T14:54:39.014Z,16.70
2018-05-04T14:57:09.641Z,17.06
2018-05-04T14:59:40.286Z,17.54
2018-05-04T15:02:11.124Z,17.37
2018-05-04T15:04:42.054Z,16.76
2018-05-04T15:07:12.725Z,17.09
2018-05-04T15:09:43.789Z,16.84
2018-05-04T15:12:14.491Z,16.71
2018-05-04T15:14:47.420Z,16.88
2018-05-04T15:17:18.390Z,16.96
2018-05-04T15:19:49.168Z,17.03
2018-05-04T15:22:19.777Z,16.93
2018-05-04T15:24:50.606Z,17.05
2018-05-04T15:27:21.303Z,17.08
2018-05-04T15:29:52.063Z,17.35
2018-05-04T15:32:25.424Z,16.87
2018-05-04T15:34:56.442Z,17.31
2018-05-04T15:37:27.152Z,17.39
2018-05-04T15:39:59.188Z,17.25
2018-05-04T15:42:29.928Z,16.74
2018-05-04T15:45:01.496Z,16.48
2018-05-04T15:47:33.602Z,16.46
2018-05-04T15:50:08.632Z,16.61
2018-05-04T15:52:39.557Z,16.38
2018-05-04T15:55:12.768Z,16.92
2018-05-04T15:57:43.676Z,16.63
2018-05-04T16:00:14.368Z,16.84
2018-05-04T16:02:45.263Z,16.93
2018-05-04T16:05:15.992Z,16.75
2018-05-04T16:07:46.732Z,16.17
2018-05-04T16:10:17.390Z,16.18
2018-05-04T16:12:48.020Z,16.57
2018-05-04T16:15:18.817Z,16.48
2018-05-04T16:17:49.613Z,17.09
2018-05-04T16:20:20.307Z,17.61
2018-05-04T16:22:51.063Z,17.37
2018-05-04T16:25:21.817Z,16.80
2018-05-04T16:27:52.588Z,16.68
2018-05-04T16:30:23.307Z,16.19
2018-05-04T16:32:54.501Z,16.46
2018-05-04T16:35:25.094Z,16.21
2018-05-04T16:37:55.952Z,16.15
2018-05-04T16:40:30.821Z,15.97
2018-05-04T16:43:01.715Z,16.12
2018-05-04T16:45:32.492Z,15.73
2018-05-04T16:48:07.468Z,15.82
2018-05-04T16:50:40.820Z,15.75
2018-05-04T16:53:12.361Z,15.07
2018-05-04T16:55:43.474Z,15.49
2018-05-04T16:58:14.881Z,15.57
2018-05-04T17:00:46.192Z,15.32
2018-05-04T17:03:17.546Z,15.54
2018-05-04T17:05:48.847Z,15.93
2018-05-04T17:08:20.102Z,16.29
2018-05-04T17:10:51.176Z,16.30
2018-05-04T17:13:22.412Z,16.55
2018-05-04T17:15:53.570Z,16.15
2018-05-04T17:18:24.951Z,16.03
2018-05-04T17:20:56.055Z,16.12
2018-05-04T17:23:27.162Z,15.91
2018-05-04T17:25:59.072Z,15.76
2018-05-04T17:28:32.091Z,15.85
2018-05-04T17:31:04.097Z,16.04
2018-05-04T17:33:35.303Z,16.14
2018-05-04T17:36:07.496Z,16.07
2018-05-04T17:38:45.409Z,16.10
2018-05-04T17:41:18.332Z,16.20
2018-05-04T17:43:50.391Z,15.84
2018-05-04T17:46:21.547Z,16.10
2018-05-04T17:48:53.198Z,15.91
2018-05-04T17:51:24.822Z,16.27
2018-05-04T17:53:56.081Z,16.05
2018-05-04T17:56:28.464Z,16.03
2018-05-04T17:59:00.625Z,15.89
2018-05-04T18:01:31.826Z,15.37
2018-05-04T18:04:03.635Z,15.58
2018-05-04T18:06:35.181Z,15.62
2018-05-04T18:09:06.492Z,15.19
2018-05-04T18:11:37.777Z,15.10
2018-05-04T18:14:09.956Z,14.88
2018-05-04T18:16:41.266Z,14.38
2018-05-04T18:19:12.594Z,14.77
2018-05-04T18:21:44.221Z,14.84
2018-05-04T18:24:15.566Z,15.15
2018-05-04T18:26:46.587Z,14.65
2018-05-04T18:29:17.783Z,14.45
2018-05-04T18:31:48.904Z,14.73
2018-05-04T18:34:19.520Z,14.69
2018-05-04T18:36:50.717Z,14.74
2018-05-04T18:39:21.794Z,14.58
2018-05-04T18:41:52.588Z,14.35
2018-05-04T18:44:23.693Z,14.41
2018-05-04T18:46:57.450Z,14.35
2018-05-04T18:49:28.199Z,14.41
2018-05-04T18:51:59.080Z,14.13
2018-05-04T18:54:29.983Z,14.30
2018-05-04T18:57:01.058Z,14.51
2018-05-04T18:59:31.963Z,14.75
2018-05-04T19:02:02.878Z,14.74
2018-05-04T19:04:33.705Z,14.25
2018-05-04T19:07:04.359Z,14.52
2018-05-04T19:09:35.120Z,14.40
2018-05-04T19:12:05.952Z,14.48
2018-05-04T19:14:36.686Z,14.52
2018-05-04T19:17:07.483Z,14.61
2018-05-04T19:19:38.155Z,14.64
2018-05-04T19:22:13.896Z,14.55
2018-05-04T19:24:44.787Z,14.49
2018-05-04T19:27:20.578Z,14.32
2018-05-04T19:29:51.443Z,14.26
2018-05-04T19:32:22.196Z,14.32
2018-05-04T19:34:52.888Z,14.27
2018-05-04T19:37:24.179Z,14.00
2018-05-04T19:39:58.826Z,14.23
2018-05-04T19:42:30.211Z,14.16
2018-05-04T19:45:01.115Z,14.35
2018-05-04T19:47:33.635Z,14.34
2018-05-04T19:50:04.701Z,14.35
2018-05-04T19:52:35.694Z,14.20
2018-05-04T19:55:06.455Z,14.34
2018-05-04T19:57:37.233Z,14.29
2018-05-04T20:00:08.430Z,14.27
2018-05-04T20:02:40.480Z,14.36
2018-05-04T20:05:14.837Z,14.25
2018-05-04T20:07:45.645Z,14.18
2018-05-04T20:10:16.523Z,13.98
2018-05-04T20:12:47.488Z,14.01
2018-05-04T20:15:18.251Z,13.86
2018-05-04T20:17:49.308Z,14.01
2018-05-04T20:20:20.200Z,13.94
2018-05-04T20:22:51.306Z,13.88
2018-05-04T20:25:21.932Z,13.59
2018-05-04T20:27:53.164Z,13.55
2018-05-04T20:30:23.764Z,13.29
2018-05-04T20:32:54.533Z,13.64
2018-05-04T20:35:26.080Z,13.22
2018-05-04T20:37:56.995Z,13.43
2018-05-04T20:40:27.807Z,13.35
2018-05-04T20:46:02.224Z,13.52
2018-05-04T20:51:45.904Z,13.49
2018-05-04T20:54:16.495Z,13.49
2018-05-04T20:56:47.207Z,13.50
2018-05-04T20:59:17.925Z,13.32
2018-05-04T21:01:48.636Z,13.45
2018-05-04T21:24:32.850Z,13.12
2018-05-04T21:27:03.455Z,13.03
2018-05-04T21:29:34.262Z,12.80
2018-05-04T21:32:04.973Z,12.98
2018-05-04T21:37:39.271Z,12.91
2018-05-04T21:40:10.255Z,12.89
2018-05-04T21:42:43.521Z,12.91
2018-05-04T21:45:14.303Z,12.90
2018-05-04T21:47:45.085Z,12.88
2018-05-04T21:50:15.792Z,12.86
2018-05-04T21:52:46.547Z,12.85
2018-05-04T21:55:17.180Z,13.04
2018-05-04T21:57:47.748Z,13.02
2018-05-04T22:00:18.519Z,12.94
2018-05-04T22:02:49.513Z,12.85
2018-05-04T22:05:20.048Z,12.80
2018-05-04T22:07:51.102Z,12.54
2018-05-04T22:10:21.829Z,12.74
2018-05-04T22:12:52.456Z,12.82
2018-05-04T22:15:23.105Z,12.80
2018-05-04T22:17:54.098Z,12.73
2018-05-04T22:20:24.667Z,12.66
2018-05-04T22:22:55.334Z,12.73
2018-05-04T22:25:25.959Z,12.62
2018-05-04T22:27:56.956Z,12.66
2018-05-04T22:30:27.683Z,12.75
2018-05-04T22:32:58.319Z,12.61
2018-05-04T22:35:28.832Z,12.61
2018-05-04T22:38:00.018Z,12.49
2018-05-04T22:40:31.034Z,12.65
2018-05-04T22:43:02.680Z,12.58
2018-05-04T22:45:33.452Z,12.57
2018-05-04T22:48:04.215Z,12.56
2018-05-04T22:57:09.604Z,12.49
2018-05-04T22:59:40.330Z,12.24
2018-05-04T23:02:10.969Z,12.40
2018-05-04T23:04:41.597Z,12.50
2018-05-04T23:07:12.344Z,12.33
2018-05-04T23:09:42.905Z,12.36
2018-05-04T23:12:13.585Z,12.22
2018-05-04T23:14:44.250Z,12.24
2018-05-04T23:17:15.125Z,12.27
2018-05-04T23:19:45.831Z,12.40
2018-05-04T23:22:25.907Z,12.24
2018-05-04T23:24:56.643Z,12.31
2018-05-04T23:27:27.336Z,12.19
2018-05-04T23:29:57.949Z,12.31
2018-05-04T23:32:28.728Z,12.16
2018-05-04T23:34:59.261Z,12.19
2018-05-04T23:37:30.200Z,11.97
2018-05-04T23:40:00.858Z,11.59
2018-05-04T23:42:31.503Z,11.91
2018-05-04T23:45:02.091Z,11.97
2018-05-04T23:47:32.869Z,11.88
2018-05-04T23:50:03.977Z,11.92
2018-05-04T23:52:35.144Z,11.71
2018-05-04T23:55:05.891Z,11.93
2018-05-04T23:57:36.718Z,12.26
